createdAt,value
2022-08-16T18:57:14.256Z,5.73
2022-08-16T18:59:42.356Z,5.80
2022-08-16T19:02:56.159Z,5.17
2022-08-16T19:04:58.727Z,5.73
2022-08-16T19:07:29.755Z,5.00
2022-08-16T19:10:00.982Z,7.17
2022-08-16T19:12:38.322Z,5.20
2022-08-16T19:15:13.487Z,5.90
2022-08-16T19:17:42.813Z,5.40
2022-08-16T19:20:12.714Z,5.37
2022-08-16T19:23:12.789Z,4.80
2022-08-16T19:26:24.708Z,5.80
2022-08-16T19:29:08.439Z,4.77
2022-08-16T19:31:37.940Z,4.90
2022-08-16T19:34:12.088Z,6.03
2022-08-16T19:36:40.823Z,5.40
2022-08-16T19:39:13.593Z,5.00
2022-08-16T19:41:44.130Z,4.80
2022-08-16T19:44:13.920Z,5.77
2022-08-16T19:46:44.874Z,5.27
2022-08-16T19:49:15.912Z,4.83
2022-08-16T19:51:45.098Z,5.07
2022-08-16T19:54:13.197Z,4.47
2022-08-16T19:56:41.575Z,5.13
2022-08-16T19:59:19.243Z,5.60
2022-08-16T20:01:52.000Z,4.80
2022-08-16T20:04:21.520Z,4.93
2022-08-16T20:06:49.792Z,6.20
2022-08-16T20:09:18.171Z,4.53
2022-08-16T20:11:47.550Z,5.80
2022-08-16T20:14:19.421Z,5.03
2022-08-16T20:16:57.147Z,5.30
2022-08-16T20:19:25.384Z,4.33
2022-08-16T20:21:53.656Z,4.10
2022-08-16T20:24:37.131Z,4.37
2022-08-16T20:27:07.703Z,4.97
2022-08-16T20:29:36.661Z,4.30
2022-08-16T20:32:07.878Z,5.73
2022-08-16T20:34:36.636Z,5.00
2022-08-16T20:37:06.039Z,4.80
2022-08-16T20:39:34.234Z,4.90
2022-08-16T20:42:02.436Z,5.17
2022-08-16T20:44:30.558Z,4.33
2022-08-16T20:46:58.744Z,5.13
2022-08-16T20:49:29.039Z,4.47
2022-08-16T20:51:59.514Z,4.50
2022-08-16T20:54:28.511Z,4.70
2022-08-16T20:56:56.933Z,4.50
2022-08-16T20:59:25.184Z,4.80
2022-08-16T21:01:53.682Z,4.60
2022-08-16T21:04:25.258Z,4.57
2022-08-16T21:06:55.418Z,4.93
2022-08-16T21:09:25.270Z,4.90
2022-08-16T21:11:55.137Z,4.57
2022-08-16T21:14:23.821Z,5.23
2022-08-16T21:16:52.560Z,3.93
2022-08-16T21:19:21.602Z,6.00
2022-08-16T21:21:50.245Z,5.43
2022-08-16T21:24:19.836Z,4.67
2022-08-16T21:26:55.369Z,4.60
2022-08-16T21:29:36.325Z,4.93
2022-08-16T21:32:13.250Z,5.73
2022-08-16T21:34:42.323Z,5.33
2022-08-16T21:37:10.725Z,5.50
2022-08-16T21:39:40.787Z,5.00
2022-08-16T21:42:10.940Z,5.60
2022-08-16T21:44:39.281Z,5.20
2022-08-16T21:47:08.249Z,4.57
2022-08-16T21:49:37.783Z,5.07
2022-08-16T21:52:07.225Z,5.00
2022-08-16T21:54:36.011Z,5.37
2022-08-16T21:57:10.638Z,5.47
2022-08-16T21:59:39.164Z,4.93
2022-08-16T22:02:07.859Z,5.00
2022-08-16T22:04:38.949Z,6.50
2022-08-16T22:07:08.016Z,5.57
2022-08-16T22:09:36.472Z,5.70
2022-08-16T22:12:06.733Z,5.07
2022-08-16T22:14:34.931Z,5.67
2022-08-16T22:17:03.132Z,5.40
2022-08-16T22:19:31.546Z,5.60
2022-08-16T22:22:01.649Z,5.50
2022-08-16T22:24:29.922Z,5.10
2022-08-16T22:26:58.097Z,5.40
2022-08-16T22:29:27.569Z,6.13
2022-08-16T22:31:55.825Z,5.00
2022-08-16T22:34:24.082Z,6.27
2022-08-16T22:36:53.672Z,5.10
2022-08-16T22:39:21.772Z,6.40
2022-08-16T22:41:50.443Z,6.53
2022-08-16T22:44:19.200Z,7.03
2022-08-16T22:46:48.753Z,8.30
2022-08-16T22:49:17.538Z,7.10
2022-08-16T22:51:45.710Z,6.90
2022-08-16T22:54:47.272Z,6.37
2022-08-16T22:57:02.203Z,6.17
2022-08-16T22:59:32.017Z,6.10
2022-08-16T23:02:03.978Z,5.90
2022-08-16T23:04:32.187Z,7.33
2022-08-16T23:07:00.496Z,6.60
2022-08-16T23:09:30.348Z,6.90
2022-08-16T23:12:02.663Z,6.00
2022-08-16T23:14:30.882Z,6.37
2022-08-16T23:16:58.989Z,6.33
2022-08-16T23:19:29.499Z,6.70
2022-08-16T23:21:57.984Z,5.90
2022-08-16T23:24:26.145Z,6.23
2022-08-16T23:26:54.285Z,7.27
2022-08-16T23:29:26.582Z,7.50
2022-08-16T23:31:58.259Z,6.53
2022-08-16T23:34:29.450Z,6.70
2022-08-16T23:36:58.092Z,7.20
2022-08-16T23:39:26.466Z,7.27
2022-08-16T23:41:55.621Z,6.80
2022-08-16T23:44:55.451Z,7.30
2022-08-16T23:47:12.192Z,6.70
2022-08-16T23:49:55.977Z,7.10
2022-08-16T23:52:40.489Z,7.37
2022-08-16T23:55:17.106Z,6.37
2022-08-16T23:57:46.029Z,6.83
